Time;durP1;ratioP1;P1;durP2;ratioP2;P2;SDS_P1;SDS_P2;PMS_P1;PMS_P2;Temp;Humidity;BMP_temperature;BMP_pressure;BME280_temperature;BME280_humidity;BME280_pressure;Samples;Min_cycle;Max_cycle;Signal;HPM_P1;HPM_P2
2023/08/14 00:01:36;;;;;;;1.30;1.10;;;;;;;;;;5030246;28;20046;-60
2023/08/14 00:04:05;;;;;;;1.98;1.17;;;;;;;;;;5029571;28;20049;-60
2023/08/14 00:06:31;;;;;;;1.60;1.00;;;;;;;;;;5024146;28;20056;-61
2023/08/14 00:08:58;;;;;;;3.17;1.40;;;;;;;;;;5027617;28;20136;-61
2023/08/14 00:11:24;;;;;;;2.70;1.30;;;;;;;;;;5030316;28;20505;-60
2023/08/14 00:13:52;;;;;;;2.95;1.30;;;;;;;;;;5026463;28;20080;-61
2023/08/14 00:16:19;;;;;;;2.47;1.17;;;;;;;;;;5029907;28;20458;-60
2023/08/14 00:18:46;;;;;;;2.92;1.17;;;;;;;;;;5026539;28;20076;-60
2023/08/14 00:21:14;;;;;;;2.15;1.10;;;;;;;;;;5029913;28;20049;-59
2023/08/14 00:23:40;;;;;;;2.35;1.20;;;;;;;;;;5030220;28;20045;-61
2023/08/14 00:26:07;;;;;;;1.90;1.08;;;;;;;;;;5029924;28;20052;-60
2023/08/14 00:28:34;;;;;;;3.03;1.77;;;;;;;;;;5030068;28;20416;-60
2023/08/14 00:31:02;;;;;;;2.08;1.08;;;;;;;;;;5029918;28;20422;-61
2023/08/14 00:33:28;;;;;;;2.17;1.13;;;;;;;;;;5030192;28;20042;-57
2023/08/14 00:35:55;;;;;;;2.22;1.15;;;;;;;;;;5028374;28;20053;-61
2023/08/14 00:38:23;;;;;;;2.28;1.00;;;;;;;;;;5028787;28;20096;-58
2023/08/14 00:40:51;;;;;;;2.60;1.30;;;;;;;;;;5028484;28;20071;-57
2023/08/14 00:43:18;;;;;;;1.90;1.02;;;;;;;;;;5024299;28;20045;-59
2023/08/14 00:45:44;;;;;;;2.78;1.20;;;;;;;;;;5028246;28;20132;-60
2023/08/14 00:48:11;;;;;;;2.75;1.30;;;;;;;;;;5027001;28;20045;-58
2023/08/14 00:50:38;;;;;;;3.22;1.20;;;;;;;;;;5028651;28;20433;-55
2023/08/14 00:53:05;;;;;;;1.50;0.90;;;;;;;;;;5022774;28;20045;-57
2023/08/14 00:55:33;;;;;;;1.85;1.10;;;;;;;;;;5026491;28;20045;-60
2023/08/14 00:58:00;;;;;;;2.10;1.00;;;;;;;;;;5024956;28;20049;-59
2023/08/14 01:00:28;;;;;;;3.28;1.15;;;;;;;;;;5026563;28;20145;-59
2023/08/14 01:02:57;;;;;;;1.80;1.10;;;;;;;;;;5024342;28;20045;-59
2023/08/14 01:05:24;;;;;;;2.08;1.10;;;;;;;;;;5026562;28;20483;-60
2023/08/14 01:07:51;;;;;;;2.00;1.02;;;;;;;;;;5028458;28;20049;-59
2023/08/14 01:10:17;;;;;;;3.05;1.13;;;;;;;;;;5029749;28;20057;-60
2023/08/14 01:12:51;;;;;;;2.03;1.10;;;;;;;;;;5032393;28;20495;-60
2023/08/14 01:15:22;;;;;;;2.95;1.15;;;;;;;;;;5031608;28;20410;-59
2023/08/14 01:17:53;;;;;;;3.50;1.10;;;;;;;;;;5027156;28;20064;-55
2023/08/14 01:20:22;;;;;;;2.38;1.10;;;;;;;;;;5032709;28;20491;-57
2023/08/14 01:22:55;;;;;;;2.28;1.27;;;;;;;;;;5030795;28;20091;-60
2023/08/14 01:25:32;;;;;;;2.83;1.58;;;;;;;;;;5031843;28;20061;-58
2023/08/14 01:28:00;;;;;;;5.22;2.67;;;;;;;;;;5028780;28;20509;-61
2023/08/14 01:30:27;;;;;;;3.63;2.03;;;;;;;;;;5024723;28;20049;-58
2023/08/14 01:32:54;;;;;;;3.00;1.45;;;;;;;;;;5031027;28;20256;-57
2023/08/14 01:35:22;;;;;;;4.07;1.50;;;;;;;;;;5032546;28;20045;-59
2023/08/14 01:37:56;;;;;;;5.68;2.38;;;;;;;;;;5028446;28;20051;-59
2023/08/14 01:40:30;;;;;;;2.78;1.40;;;;;;;;;;5030989;28;20512;-59
2023/08/14 01:43:02;;;;;;;3.83;2.13;;;;;;;;;;5031954;28;20356;-59
2023/08/14 01:45:30;;;;;;;3.53;1.20;;;;;;;;;;5028152;28;20057;-59
2023/08/14 01:47:59;;;;;;;3.33;1.30;;;;;;;;;;5031812;28;20052;-59
2023/08/14 01:50:28;;;;;;;3.45;1.17;;;;;;;;;;5028624;28;20045;-58
2023/08/14 01:52:56;;;;;;;2.28;1.05;;;;;;;;;;5031268;28;20472;-58
2023/08/14 01:55:24;;;;;;;3.63;1.70;;;;;;;;;;5028572;28;20045;-57
2023/08/14 01:57:50;;;;;;;4.50;1.92;;;;;;;;;;5031644;28;20045;-59
2023/08/14 02:00:18;;;;;;;3.58;1.70;;;;;;;;;;5031627;28;20045;-59
2023/08/14 02:02:45;;;;;;;3.05;1.40;;;;;;;;;;5031252;28;20053;-59
2023/08/14 02:05:11;;;;;;;2.65;1.30;;;;;;;;;;5031077;28;20050;-59
2023/08/14 02:07:38;;;;;;;2.05;1.13;;;;;;;;;;5031320;28;20136;-59
2023/08/14 02:10:06;;;;;;;2.70;1.20;;;;;;;;;;5030726;28;20408;-59
2023/08/14 02:12:32;;;;;;;2.45;1.30;;;;;;;;;;5031103;28;20506;-59
2023/08/14 02:14:59;;;;;;;2.60;1.40;;;;;;;;;;5031032;28;20049;-59
2023/08/14 02:17:27;;;;;;;3.95;1.77;;;;;;;;;;5031141;28;20041;-59
2023/08/14 02:19:55;;;;;;;2.70;1.50;;;;;;;;;;5031443;28;20053;-59
2023/08/14 02:22:21;;;;;;;2.30;1.10;;;;;;;;;;5029899;28;20107;-59
2023/08/14 02:24:48;;;;;;;1.88;1.15;;;;;;;;;;5031018;28;20049;-58
2023/08/14 02:27:14;;;;;;;3.38;1.55;;;;;;;;;;5030817;28;20060;-59
2023/08/14 02:29:41;;;;;;;3.17;1.67;;;;;;;;;;5031245;28;20042;-59
2023/08/14 02:32:08;;;;;;;3.20;1.55;;;;;;;;;;5030200;28;20048;-58
2023/08/14 02:34:44;;;;;;;3.45;1.67;;;;;;;;;;5030572;28;20064;-57
2023/08/14 02:37:10;;;;;;;2.38;1.40;;;;;;;;;;5030684;28;20564;-57
2023/08/14 02:39:37;;;;;;;2.38;1.20;;;;;;;;;;5030827;28;20045;-59
2023/08/14 02:42:04;;;;;;;3.67;1.50;;;;;;;;;;5030354;28;20053;-59
2023/08/14 02:44:31;;;;;;;2.40;1.10;;;;;;;;;;5030589;28;20410;-59
2023/08/14 02:46:58;;;;;;;3.10;1.40;;;;;;;;;;5029947;28;20056;-58
2023/08/14 02:49:24;;;;;;;2.50;1.33;;;;;;;;;;5027748;28;20044;-59
2023/08/14 02:51:52;;;;;;;6.15;1.60;;;;;;;;;;5030843;28;20346;-59
2023/08/14 02:54:19;;;;;;;2.60;1.45;;;;;;;;;;5030255;28;20041;-59
2023/08/14 02:56:46;;;;;;;3.03;1.50;;;;;;;;;;5030155;28;20080;-59
2023/08/14 02:59:12;;;;;;;3.53;1.52;;;;;;;;;;5030164;28;20045;-57
2023/08/14 03:01:39;;;;;;;4.00;1.77;;;;;;;;;;5029945;28;20046;-57
2023/08/14 03:04:06;;;;;;;3.28;1.65;;;;;;;;;;5027684;28;20057;-59
2023/08/14 03:06:33;;;;;;;2.78;1.60;;;;;;;;;;5026633;28;20526;-59
2023/08/14 03:09:01;;;;;;;3.53;1.63;;;;;;;;;;5024509;28;20379;-59
2023/08/14 03:11:28;;;;;;;3.60;1.67;;;;;;;;;;5025072;28;20458;-59
2023/08/14 03:13:54;;;;;;;4.05;1.65;;;;;;;;;;5027330;28;20046;-58
2023/08/14 03:16:21;;;;;;;2.83;1.55;;;;;;;;;;5029390;28;20041;-58
2023/08/14 03:18:47;;;;;;;3.88;1.60;;;;;;;;;;5029200;28;20057;-58
2023/08/14 03:21:14;;;;;;;3.70;1.60;;;;;;;;;;5029590;28;20053;-59
2023/08/14 03:23:41;;;;;;;2.40;1.50;;;;;;;;;;5030079;28;20049;-59
2023/08/14 03:26:09;;;;;;;2.78;1.70;;;;;;;;;;5029362;28;20128;-59
2023/08/14 03:28:35;;;;;;;3.88;1.60;;;;;;;;;;5027598;28;20049;-59
2023/08/14 03:31:02;;;;;;;3.20;1.60;;;;;;;;;;5029038;28;20068;-59
2023/08/14 03:33:28;;;;;;;3.05;1.73;;;;;;;;;;5029764;28;20052;-57
2023/08/14 03:35:55;;;;;;;3.97;2.28;;;;;;;;;;5029501;28;20049;-58
2023/08/14 03:38:22;;;;;;;5.60;2.75;;;;;;;;;;5029666;28;20045;-58
2023/08/14 03:40:49;;;;;;;6.28;2.40;;;;;;;;;;5029377;28;20052;-56
2023/08/14 03:43:17;;;;;;;4.32;2.25;;;;;;;;;;5025403;28;20439;-57
2023/08/14 03:45:43;;;;;;;4.13;1.83;;;;;;;;;;5027703;28;20046;-59
2023/08/14 03:48:10;;;;;;;3.78;1.98;;;;;;;;;;5027819;28;20056;-58
2023/08/14 03:50:36;;;;;;;3.85;2.00;;;;;;;;;;5029360;28;20486;-57
2023/08/14 03:53:03;;;;;;;7.45;2.20;;;;;;;;;;5027351;28;20045;-59
2023/08/14 03:55:30;;;;;;;3.38;1.90;;;;;;;;;;5026290;28;20049;-58
2023/08/14 03:57:57;;;;;;;2.97;1.75;;;;;;;;;;5029398;28;20059;-57
2023/08/14 04:00:25;;;;;;;2.92;1.70;;;;;;;;;;5028073;28;20490;-58
2023/08/14 04:02:51;;;;;;;3.33;1.75;;;;;;;;;;5029520;28;20056;-60
2023/08/14 04:05:18;;;;;;;2.72;1.60;;;;;;;;;;5028540;28;20053;-57
2023/08/14 04:07:45;;;;;;;3.17;1.77;;;;;;;;;;5029272;28;20068;-61
2023/08/14 04:10:11;;;;;;;3.80;1.60;;;;;;;;;;5028936;28;20562;-59
2023/08/14 04:12:38;;;;;;;4.63;1.90;;;;;;;;;;5028825;28;20079;-57
2023/08/14 04:15:14;;;;;;;3.08;1.67;;;;;;;;;;5027768;28;20395;-57
2023/08/14 04:17:42;;;;;;;3.58;1.77;;;;;;;;;;5017194;28;20046;-55
2023/08/14 04:20:10;;;;;;;2.72;1.70;;;;;;;;;;5021530;28;20447;-57
2023/08/14 04:22:36;;;;;;;3.10;1.50;;;;;;;;;;5026348;28;20057;-57
2023/08/14 04:25:03;;;;;;;3.40;1.50;;;;;;;;;;5028372;28;20072;-59
2023/08/14 04:27:30;;;;;;;2.50;1.63;;;;;;;;;;5029001;28;20054;-58
2023/08/14 04:29:57;;;;;;;2.58;1.50;;;;;;;;;;5028753;28;20046;-59
2023/08/14 04:32:24;;;;;;;4.55;1.70;;;;;;;;;;5026145;28;20038;-59
2023/08/14 04:34:51;;;;;;;2.90;1.73;;;;;;;;;;5024612;28;20050;-57
2023/08/14 04:37:18;;;;;;;2.75;1.70;;;;;;;;;;5025006;28;20508;-57
2023/08/14 04:39:45;;;;;;;3.72;1.80;;;;;;;;;;5021143;28;21913;-58
2023/08/14 04:42:11;;;;;;;3.50;1.67;;;;;;;;;;5026201;28;20410;-59
2023/08/14 04:44:38;;;;;;;3.78;1.88;;;;;;;;;;5024050;28;20137;-60
2023/08/14 04:47:05;;;;;;;3.15;1.75;;;;;;;;;;5027991;28;20092;-59
2023/08/14 04:49:32;;;;;;;3.38;1.70;;;;;;;;;;5025153;28;20426;-58
2023/08/14 04:52:00;;;;;;;3.45;1.85;;;;;;;;;;5028385;28;20436;-59
2023/08/14 04:54:27;;;;;;;3.75;2.05;;;;;;;;;;5025723;28;20049;-59
2023/08/14 04:56:53;;;;;;;3.67;2.00;;;;;;;;;;5028069;28;20046;-55
2023/08/14 04:59:20;;;;;;;3.22;1.80;;;;;;;;;;5027722;28;20041;-58
2023/08/14 05:01:46;;;;;;;3.03;1.83;;;;;;;;;;5026126;28;20323;-59
2023/08/14 05:04:13;;;;;;;3.05;1.85;;;;;;;;;;5027759;28;20099;-61
2023/08/14 05:06:39;;;;;;;4.13;2.03;;;;;;;;;;5028765;28;20045;-59
2023/08/14 05:09:07;;;;;;;3.13;1.92;;;;;;;;;;5027723;28;20072;-59
2023/08/14 05:11:34;;;;;;;4.47;2.40;;;;;;;;;;5027849;28;20046;-56
2023/08/14 05:14:00;;;;;;;5.22;2.47;;;;;;;;;;5028047;28;20068;-60
2023/08/14 05:16:27;;;;;;;3.90;2.00;;;;;;;;;;5027918;28;20050;-60
2023/08/14 05:18:54;;;;;;;5.28;2.30;;;;;;;;;;5025516;28;20064;-59
2023/08/14 05:21:20;;;;;;;4.90;2.25;;;;;;;;;;5025678;28;20414;-60
2023/08/14 05:23:47;;;;;;;4.68;2.30;;;;;;;;;;5028292;28;20055;-59
2023/08/14 05:26:15;;;;;;;4.63;2.22;;;;;;;;;;5027908;28;20052;-58
2023/08/14 05:28:41;;;;;;;4.03;2.25;;;;;;;;;;5027826;28;20063;-58
2023/08/14 05:31:08;;;;;;;3.83;2.33;;;;;;;;;;5026852;28;20045;-59
2023/08/14 05:33:35;;;;;;;3.67;1.98;;;;;;;;;;5026793;28;20077;-56
2023/08/14 05:36:01;;;;;;;3.42;1.90;;;;;;;;;;5028031;28;20060;-59
2023/08/14 05:38:28;;;;;;;3.20;1.80;;;;;;;;;;5026693;28;20245;-59
2023/08/14 05:40:55;;;;;;;4.45;2.10;;;;;;;;;;5028301;28;20046;-60
2023/08/14 05:43:22;;;;;;;3.28;2.03;;;;;;;;;;5022810;28;20042;-59
2023/08/14 05:45:50;;;;;;;3.65;1.98;;;;;;;;;;5027700;28;20050;-60
2023/08/14 05:48:16;;;;;;;4.03;2.40;;;;;;;;;;5025020;28;20273;-58
2023/08/14 05:50:43;;;;;;;3.47;1.83;;;;;;;;;;5027979;28;20057;-61
2023/08/14 05:53:10;;;;;;;4.10;2.33;;;;;;;;;;5026929;28;20409;-58
2023/08/14 05:55:37;;;;;;;3.95;1.90;;;;;;;;;;5026444;28;20516;-58
2023/08/14 05:58:05;;;;;;;4.05;1.88;;;;;;;;;;5030541;28;20451;-61
2023/08/14 06:00:34;;;;;;;4.55;2.22;;;;;;;;;;5033436;28;20495;-62
2023/08/14 06:03:01;;;;;;;2.90;1.90;;;;;;;;;;5032435;28;20077;-60
2023/08/14 06:05:28;;;;;;;3.70;1.73;;;;;;;;;;5032438;28;20045;-61
2023/08/14 06:07:55;;;;;;;3.53;1.90;;;;;;;;;;5032989;28;20059;-61
2023/08/14 06:10:22;;;;;;;4.35;2.70;;;;;;;;;;5032962;28;20049;-62
2023/08/14 06:12:49;;;;;;;4.57;2.28;;;;;;;;;;5032481;28;20041;-61
2023/08/14 06:15:16;;;;;;;3.10;1.75;;;;;;;;;;5032550;28;20051;-61
2023/08/14 06:17:45;;;;;;;4.05;2.60;;;;;;;;;;5027811;28;20056;-61
2023/08/14 06:20:12;;;;;;;4.53;2.42;;;;;;;;;;5032813;28;20056;-62
2023/08/14 06:22:40;;;;;;;5.72;2.33;;;;;;;;;;5028268;28;20064;-62
2023/08/14 06:25:08;;;;;;;3.90;2.03;;;;;;;;;;5026367;28;20081;-60
2023/08/14 06:27:36;;;;;;;4.20;2.08;;;;;;;;;;5029408;28;20053;-61
2023/08/14 06:30:02;;;;;;;4.10;2.28;;;;;;;;;;5032542;28;20107;-61
2023/08/14 06:32:29;;;;;;;4.57;2.25;;;;;;;;;;5041442;22;20025;-60
2023/08/14 06:34:57;;;;;;;5.55;2.20;;;;;;;;;;5001732;28;20092;-55
2023/08/14 06:37:23;;;;;;;5.15;2.33;;;;;;;;;;5010288;28;20069;-58
2023/08/14 06:39:50;;;;;;;4.63;2.53;;;;;;;;;;5009392;28;20046;-57
2023/08/14 06:42:17;;;;;;;3.95;2.35;;;;;;;;;;5001224;28;20046;-57
2023/08/14 06:44:43;;;;;;;3.67;2.28;;;;;;;;;;5007973;28;20068;-59
2023/08/14 06:47:10;;;;;;;3.58;2.40;;;;;;;;;;5007590;28;20392;-58
2023/08/14 06:49:36;;;;;;;4.45;2.85;;;;;;;;;;5005793;28;20050;-57
2023/08/14 06:52:05;;;;;;;3.67;2.25;;;;;;;;;;5007514;28;20044;-60
2023/08/14 06:54:32;;;;;;;3.83;2.28;;;;;;;;;;5001089;28;20076;-58
2023/08/14 06:57:01;;;;;;;4.57;2.33;;;;;;;;;;5000467;28;20058;-56
2023/08/14 06:59:27;;;;;;;5.95;2.42;;;;;;;;;;5006458;28;20054;-57
2023/08/14 07:01:54;;;;;;;4.43;2.40;;;;;;;;;;5009896;28;20060;-58
2023/08/14 07:04:21;;;;;;;3.85;2.22;;;;;;;;;;5010103;28;20100;-56
2023/08/14 07:06:47;;;;;;;5.75;2.33;;;;;;;;;;5010299;28;20049;-53
2023/08/14 07:09:16;;;;;;;4.30;2.50;;;;;;;;;;5007359;28;20050;-53
2023/08/14 07:11:43;;;;;;;4.22;2.33;;;;;;;;;;5009455;28;20454;-55
2023/08/14 07:14:09;;;;;;;4.55;2.60;;;;;;;;;;5007905;28;20042;-58
2023/08/14 07:16:36;;;;;;;3.45;2.30;;;;;;;;;;5005856;28;20129;-58
2023/08/14 07:19:03;;;;;;;5.18;2.20;;;;;;;;;;5005744;28;20095;-55
2023/08/14 07:21:30;;;;;;;3.20;2.20;;;;;;;;;;5010222;28;20054;-57
2023/08/14 07:23:56;;;;;;;4.07;2.53;;;;;;;;;;5010192;28;20152;-56
2023/08/14 07:26:24;;;;;;;3.20;2.05;;;;;;;;;;5009733;28;20228;-58
2023/08/14 07:28:51;;;;;;;3.13;2.13;;;;;;;;;;5009822;28;20492;-57
2023/08/14 07:31:18;;;;;;;8.05;2.28;;;;;;;;;;5009759;28;20050;-57
2023/08/14 07:33:44;;;;;;;4.43;2.30;;;;;;;;;;5010642;28;20060;-60
2023/08/14 07:36:11;;;;;;;3.63;2.00;;;;;;;;;;5009443;28;20507;-58
2023/08/14 07:38:37;;;;;;;3.67;2.30;;;;;;;;;;5007751;28;21250;-57
2023/08/14 07:41:04;;;;;;;3.35;2.00;;;;;;;;;;5013680;28;20414;-55
2023/08/14 07:43:32;;;;;;;3.90;2.22;;;;;;;;;;5002669;28;20145;-60
2023/08/14 07:45:59;;;;;;;4.88;2.40;;;;;;;;;;5004828;28;20073;-66
2023/08/14 07:48:26;;;;;;;4.05;2.22;;;;;;;;;;5010272;28;20054;-55
2023/08/14 07:50:54;;;;;;;3.95;2.10;;;;;;;;;;5002359;28;20050;-56
2023/08/14 07:53:21;;;;;;;5.22;2.45;;;;;;;;;;5001229;28;20050;-57
2023/08/14 07:55:49;;;;;;;4.28;2.42;;;;;;;;;;5001419;28;20054;-56
2023/08/14 07:58:15;;;;;;;3.92;2.40;;;;;;;;;;5009873;28;20487;-58
2023/08/14 08:00:43;;;;;;;7.60;2.40;;;;;;;;;;5008067;28;20050;-58
2023/08/14 08:03:10;;;;;;;4.95;2.42;;;;;;;;;;5003453;28;20486;-54
2023/08/14 08:05:37;;;;;;;4.88;2.90;;;;;;;;;;5006602;28;20045;-59
2023/08/14 08:08:04;;;;;;;4.20;2.53;;;;;;;;;;5008308;28;20120;-58
2023/08/14 08:10:30;;;;;;;4.57;2.50;;;;;;;;;;5009622;28;20399;-54
2023/08/14 08:12:57;;;;;;;4.50;2.08;;;;;;;;;;5007940;28;20101;-58
2023/08/14 08:15:24;;;;;;;4.18;2.22;;;;;;;;;;5005428;28;20128;-57
2023/08/14 08:17:52;;;;;;;3.88;2.20;;;;;;;;;;5009680;28;20042;-58
2023/08/14 08:20:19;;;;;;;3.67;2.30;;;;;;;;;;5008444;28;20152;-59
2023/08/14 08:22:45;;;;;;;4.18;2.03;;;;;;;;;;5009861;28;20057;-56
2023/08/14 08:25:12;;;;;;;4.40;2.42;;;;;;;;;;5009243;28;20046;-57
2023/08/14 08:27:38;;;;;;;3.95;2.30;;;;;;;;;;5007707;28;20144;-58
2023/08/14 08:30:06;;;;;;;4.95;2.63;;;;;;;;;;5009212;28;20053;-59
2023/08/14 08:32:33;;;;;;;3.63;1.98;;;;;;;;;;5009406;28;20046;-58
2023/08/14 08:35:00;;;;;;;4.25;2.13;;;;;;;;;;5008953;28;20140;-58
2023/08/14 08:37:27;;;;;;;4.35;2.75;;;;;;;;;;5006403;28;20132;-58
2023/08/14 08:39:54;;;;;;;3.80;2.20;;;;;;;;;;5007708;28;20050;-56
2023/08/14 08:42:20;;;;;;;4.60;2.50;;;;;;;;;;5009456;28;20053;-58
2023/08/14 08:44:50;;;;;;;6.32;2.50;;;;;;;;;;5009265;28;20056;-60
2023/08/14 08:47:18;;;;;;;4.15;2.67;;;;;;;;;;5008948;28;20532;-58
2023/08/14 08:49:45;;;;;;;4.22;2.20;;;;;;;;;;5009116;28;20046;-58
2023/08/14 08:52:13;;;;;;;5.82;2.80;;;;;;;;;;5009164;28;20054;-58
2023/08/14 08:54:40;;;;;;;4.50;2.63;;;;;;;;;;5009020;28;20054;-59
2023/08/14 08:57:07;;;;;;;4.18;2.88;;;;;;;;;;5008906;28;20418;-56
2023/08/14 08:59:34;;;;;;;5.05;2.65;;;;;;;;;;5009146;28;20479;-57
2023/08/14 09:02:01;;;;;;;4.40;2.80;;;;;;;;;;5009175;28;20046;-59
2023/08/14 09:04:28;;;;;;;4.28;2.55;;;;;;;;;;5008997;28;20054;-57
2023/08/14 09:06:54;;;;;;;3.70;2.60;;;;;;;;;;5007092;28;20495;-60
2023/08/14 09:09:23;;;;;;;4.40;2.50;;;;;;;;;;5004915;28;20042;-58
2023/08/14 09:11:49;;;;;;;3.97;2.60;;;;;;;;;;5006153;28;20053;-58
2023/08/14 09:14:17;;;;;;;5.80;2.78;;;;;;;;;;5003054;28;20050;-60
2023/08/14 09:16:44;;;;;;;4.30;2.60;;;;;;;;;;5008323;28;20046;-59
2023/08/14 09:19:14;;;;;;;3.85;2.85;;;;;;;;;;5008404;28;20104;-58
2023/08/14 09:21:44;;;;;;;4.63;2.75;;;;;;;;;;5008864;28;20052;-57
2023/08/14 09:24:13;;;;;;;5.78;3.30;;;;;;;;;;5004808;28;20039;-59
2023/08/14 09:26:42;;;;;;;5.33;3.30;;;;;;;;;;5009315;28;20509;-59
2023/08/14 09:29:09;;;;;;;4.05;2.83;;;;;;;;;;5006155;28;20491;-59
2023/08/14 09:31:35;;;;;;;5.18;2.65;;;;;;;;;;5010903;28;20242;-57
2023/08/14 09:34:02;;;;;;;4.88;2.95;;;;;;;;;;5012244;28;20053;-59
2023/08/14 09:36:34;;;;;;;4.80;2.80;;;;;;;;;;5006832;28;20053;-56
2023/08/14 09:39:01;;;;;;;4.72;2.67;;;;;;;;;;5012387;28;20049;-59
2023/08/14 09:41:27;;;;;;;4.80;2.85;;;;;;;;;;5011747;28;20434;-57
2023/08/14 09:44:00;;;;;;;4.55;2.70;;;;;;;;;;5012544;28;20049;-60
2023/08/14 09:46:27;;;;;;;4.30;2.70;;;;;;;;;;5008300;28;20046;-56
2023/08/14 09:48:53;;;;;;;3.88;2.53;;;;;;;;;;5012560;28;20046;-60
2023/08/14 09:51:20;;;;;;;4.72;2.58;;;;;;;;;;5007812;28;20049;-56
2023/08/14 09:53:51;;;;;;;3.70;2.47;;;;;;;;;;5011775;28;20083;-59
2023/08/14 09:56:18;;;;;;;5.50;2.63;;;;;;;;;;5010722;28;20408;-58
2023/08/14 09:58:45;;;;;;;3.90;2.70;;;;;;;;;;5011899;28;20052;-59
2023/08/14 10:01:15;;;;;;;5.43;2.92;;;;;;;;;;5012182;28;20050;-58
2023/08/14 10:03:42;;;;;;;4.28;2.88;;;;;;;;;;5011768;28;20050;-56
2023/08/14 10:06:11;;;;;;;3.97;2.60;;;;;;;;;;5010318;28;20377;-59
2023/08/14 10:08:39;;;;;;;4.13;2.60;;;;;;;;;;5009149;28;20061;-59
2023/08/14 10:11:06;;;;;;;4.80;3.03;;;;;;;;;;5009280;28;20132;-59
2023/08/14 10:13:39;;;;;;;5.30;3.08;;;;;;;;;;5004331;28;20497;-58
2023/08/14 10:16:10;;;;;;;3.53;2.83;;;;;;;;;;5005565;28;20054;-57
2023/08/14 10:18:40;;;;;;;4.40;3.00;;;;;;;;;;5006145;28;20410;-55
2023/08/14 10:21:11;;;;;;;4.90;3.25;;;;;;;;;;5011637;28;20410;-58
2023/08/14 10:23:39;;;;;;;4.90;2.95;;;;;;;;;;5005330;28;20362;-56
2023/08/14 10:26:08;;;;;;;5.70;3.47;;;;;;;;;;5007793;28;20053;-57
2023/08/14 10:28:35;;;;;;;4.50;3.17;;;;;;;;;;5011434;28;20219;-58
2023/08/14 10:31:04;;;;;;;5.13;3.40;;;;;;;;;;5011788;28;20046;-59
2023/08/14 10:33:31;;;;;;;5.20;3.35;;;;;;;;;;5011058;28;20141;-58
2023/08/14 10:36:02;;;;;;;5.10;3.58;;;;;;;;;;5011318;28;20057;-59
2023/08/14 10:38:40;;;;;;;4.35;3.38;;;;;;;;;;5011157;28;20058;-59
2023/08/14 10:41:09;;;;;;;4.93;2.95;;;;;;;;;;5011307;28;20491;-58
2023/08/14 10:43:36;;;;;;;4.50;2.97;;;;;;;;;;5010784;28;20562;-58
2023/08/14 10:46:08;;;;;;;4.53;2.78;;;;;;;;;;5010900;28;20046;-58
2023/08/14 10:48:36;;;;;;;4.35;3.00;;;;;;;;;;5011543;28;20038;-56
2023/08/14 10:51:08;;;;;;;4.80;3.13;;;;;;;;;;5011203;28;20048;-58
2023/08/14 10:53:34;;;;;;;3.88;2.95;;;;;;;;;;5011213;28;20050;-59
2023/08/14 10:56:01;;;;;;;4.30;3.15;;;;;;;;;;5006913;28;20049;-57
2023/08/14 10:58:39;;;;;;;4.20;2.90;;;;;;;;;;5011010;28;20160;-58
2023/08/14 11:01:07;;;;;;;6.07;3.30;;;;;;;;;;5010938;28;20338;-56
2023/08/14 11:03:35;;;;;;;4.13;2.65;;;;;;;;;;5010293;28;20054;-56
2023/08/14 11:06:01;;;;;;;4.80;3.40;;;;;;;;;;5004584;28;20053;-52
2023/08/14 11:08:31;;;;;;;4.63;3.38;;;;;;;;;;5000092;28;20050;-60
2023/08/14 11:10:58;;;;;;;3.92;2.78;;;;;;;;;;5003442;28;20049;-58
2023/08/14 11:13:29;;;;;;;3.90;2.80;;;;;;;;;;5008052;28;20427;-58
2023/08/14 11:15:55;;;;;;;3.92;2.50;;;;;;;;;;5003326;28;20057;-58
2023/08/14 11:18:22;;;;;;;3.95;2.75;;;;;;;;;;5007928;28;20042;-58
2023/08/14 11:20:49;;;;;;;5.70;2.95;;;;;;;;;;5002053;28;20060;-65
2023/08/14 11:23:15;;;;;;;4.20;2.97;;;;;;;;;;5002933;28;20128;-59
2023/08/14 11:25:43;;;;;;;4.78;3.00;;;;;;;;;;5006263;28;20093;-59
2023/08/14 11:28:10;;;;;;;4.50;3.20;;;;;;;;;;5003278;28;20038;-58
2023/08/14 11:30:37;;;;;;;4.97;3.05;;;;;;;;;;5003333;28;20049;-58
2023/08/14 11:33:05;;;;;;;6.63;2.90;;;;;;;;;;5005772;28;20042;-56
2023/08/14 11:35:32;;;;;;;5.32;3.42;;;;;;;;;;5008191;28;20042;-56
2023/08/14 11:37:59;;;;;;;4.22;3.08;;;;;;;;;;5006721;28;20042;-58
2023/08/14 11:40:26;;;;;;;5.78;3.80;;;;;;;;;;5000823;28;20038;-57
2023/08/14 11:42:56;;;;;;;5.63;3.60;;;;;;;;;;5008994;28;20479;-58
2023/08/14 11:45:22;;;;;;;6.22;3.60;;;;;;;;;;5007968;28;20451;-54
2023/08/14 11:47:50;;;;;;;5.25;3.47;;;;;;;;;;5007259;28;20060;-57
2023/08/14 11:50:18;;;;;;;5.13;3.33;;;;;;;;;;5007696;28;20042;-57
2023/08/14 11:52:45;;;;;;;4.15;3.25;;;;;;;;;;5003251;28;20069;-58
2023/08/14 11:55:13;;;;;;;5.20;3.30;;;;;;;;;;5006693;28;20045;-58
2023/08/14 11:57:40;;;;;;;5.35;3.10;;;;;;;;;;5007697;28;20141;-57
2023/08/14 12:00:10;;;;;;;4.38;3.40;;;;;;;;;;5009390;28;20052;-57
2023/08/14 12:02:38;;;;;;;4.63;3.58;;;;;;;;;;5013173;28;20132;-58
2023/08/14 12:05:05;;;;;;;4.75;3.22;;;;;;;;;;5009989;28;20092;-57
2023/08/14 12:07:32;;;;;;;4.10;3.40;;;;;;;;;;5001711;28;20041;-59
2023/08/14 12:10:00;;;;;;;6.00;3.97;;;;;;;;;;5004144;28;20037;-58
2023/08/14 12:12:27;;;;;;;4.72;3.30;;;;;;;;;;5008021;28;20045;-57
2023/08/14 12:14:54;;;;;;;6.00;4.05;;;;;;;;;;5002661;28;20049;-58
2023/08/14 12:17:22;;;;;;;4.93;3.22;;;;;;;;;;5005803;28;20052;-58
2023/08/14 12:19:49;;;;;;;4.55;3.17;;;;;;;;;;5002864;28;20075;-58
2023/08/14 12:22:16;;;;;;;5.07;3.30;;;;;;;;;;5007455;28;20053;-59
2023/08/14 12:24:44;;;;;;;4.60;3.53;;;;;;;;;;5005617;28;20049;-55
2023/08/14 12:27:15;;;;;;;4.07;3.13;;;;;;;;;;5004263;28;20048;-59
2023/08/14 12:29:41;;;;;;;4.80;3.45;;;;;;;;;;5009385;28;20058;-57
2023/08/14 12:32:08;;;;;;;5.10;3.40;;;;;;;;;;5007418;28;20145;-58
2023/08/14 12:34:36;;;;;;;4.53;3.15;;;;;;;;;;5005528;28;20045;-57
2023/08/14 12:37:03;;;;;;;4.53;3.13;;;;;;;;;;5017734;22;20049;-59
2023/08/14 12:39:30;;;;;;;4.07;3.13;;;;;;;;;;5019796;28;20056;-59
2023/08/14 12:41:57;;;;;;;6.28;3.42;;;;;;;;;;5021574;28;20049;-62
2023/08/14 12:44:24;;;;;;;4.63;3.22;;;;;;;;;;5021783;28;20089;-60
2023/08/14 12:46:50;;;;;;;5.18;2.78;;;;;;;;;;5020403;28;20050;-60
2023/08/14 12:49:17;;;;;;;3.85;3.03;;;;;;;;;;5022930;28;20261;-60
2023/08/14 12:51:45;;;;;;;5.00;3.40;;;;;;;;;;5019501;28;20398;-59
2023/08/14 12:54:13;;;;;;;4.32;2.97;;;;;;;;;;5025796;28;20076;-62
2023/08/14 12:56:40;;;;;;;4.15;3.20;;;;;;;;;;5027014;28;20049;-60
2023/08/14 12:59:07;;;;;;;5.72;3.40;;;;;;;;;;5028042;28;20041;-58
2023/08/14 13:01:34;;;;;;;4.03;3.05;;;;;;;;;;5026588;28;20049;-63
2023/08/14 13:04:00;;;;;;;5.20;2.85;;;;;;;;;;5017071;28;20042;-60
2023/08/14 13:06:28;;;;;;;5.82;3.42;;;;;;;;;;5027086;28;20129;-61
2023/08/14 13:08:56;;;;;;;5.43;3.22;;;;;;;;;;5026429;28;20132;-61
2023/08/14 13:11:23;;;;;;;4.22;3.05;;;;;;;;;;5028522;28;20045;-61
2023/08/14 13:13:50;;;;;;;3.85;2.85;;;;;;;;;;5025736;28;20041;-60
2023/08/14 13:16:17;;;;;;;4.43;2.90;;;;;;;;;;5028706;28;20494;-60
2023/08/14 13:18:44;;;;;;;4.80;3.20;;;;;;;;;;5026354;28;20093;-61
2023/08/14 13:21:11;;;;;;;4.88;3.13;;;;;;;;;;5028547;28;20050;-61
2023/08/14 13:23:38;;;;;;;4.97;3.17;;;;;;;;;;5023581;28;20045;-61
2023/08/14 13:26:06;;;;;;;4.00;2.72;;;;;;;;;;5023685;28;20052;-61
2023/08/14 13:28:35;;;;;;;6.65;2.85;;;;;;;;;;5023090;28;20044;-60
2023/08/14 13:31:04;;;;;;;4.60;2.85;;;;;;;;;;5022914;28;20049;-64
2023/08/14 13:33:31;;;;;;;4.10;2.90;;;;;;;;;;5028352;28;20069;-57
2023/08/14 13:35:58;;;;;;;3.75;3.17;;;;;;;;;;5024586;28;20505;-61
2023/08/14 13:38:24;;;;;;;4.32;3.35;;;;;;;;;;5025724;28;20042;-61
2023/08/14 13:40:51;;;;;;;4.03;3.00;;;;;;;;;;5025113;28;20410;-60
2023/08/14 13:43:19;;;;;;;4.40;3.40;;;;;;;;;;5019227;28;20049;-61
2023/08/14 13:45:45;;;;;;;3.90;2.90;;;;;;;;;;5024104;28;20180;-60
2023/08/14 13:48:12;;;;;;;3.90;3.08;;;;;;;;;;5028153;28;20449;-62
2023/08/14 13:50:39;;;;;;;3.33;2.70;;;;;;;;;;5019038;28;20507;-64
2023/08/14 13:53:05;;;;;;;4.57;2.80;;;;;;;;;;5025339;28;20046;-60
2023/08/14 13:55:33;;;;;;;4.15;2.85;;;;;;;;;;5027744;28;20060;-60
2023/08/14 13:58:00;;;;;;;3.75;2.80;;;;;;;;;;5023999;28;20042;-61
2023/08/14 14:00:29;;;;;;;3.55;2.90;;;;;;;;;;5028149;28;20053;-61
2023/08/14 14:02:56;;;;;;;3.55;2.80;;;;;;;;;;5018963;28;20056;-62
2023/08/14 14:05:23;;;;;;;3.72;2.90;;;;;;;;;;5022894;28;20740;-60
2023/08/14 14:07:49;;;;;;;4.07;2.97;;;;;;;;;;5020709;28;20415;-61
2023/08/14 14:10:16;;;;;;;8.32;4.80;;;;;;;;;;5017377;28;20048;-64
2023/08/14 14:12:42;;;;;;;5.53;3.30;;;;;;;;;;5021058;28;20065;-57
2023/08/14 14:15:10;;;;;;;4.47;3.60;;;;;;;;;;5028001;28;20050;-62
2023/08/14 14:17:38;;;;;;;5.40;4.25;;;;;;;;;;5026883;28;20060;-58
2023/08/14 14:20:08;;;;;;;6.10;4.65;;;;;;;;;;5030654;28;20069;-60
2023/08/14 14:22:35;;;;;;;4.57;2.95;;;;;;;;;;5028642;28;20136;-63
2023/08/14 14:25:01;;;;;;;4.90;3.80;;;;;;;;;;5031573;28;20490;-61
2023/08/14 14:27:28;;;;;;;4.57;3.47;;;;;;;;;;5031480;28;20063;-63
2023/08/14 14:29:55;;;;;;;5.55;3.92;;;;;;;;;;5031254;28;20041;-62
2023/08/14 14:32:21;;;;;;;4.70;3.58;;;;;;;;;;5031638;28;20052;-60
2023/08/14 14:34:49;;;;;;;5.22;3.35;;;;;;;;;;5031037;28;20477;-62
2023/08/14 14:37:16;;;;;;;5.18;3.17;;;;;;;;;;5031147;28;20062;-61
2023/08/14 14:39:43;;;;;;;3.72;3.17;;;;;;;;;;5031617;28;20051;-62
2023/08/14 14:42:10;;;;;;;4.75;2.80;;;;;;;;;;5031885;28;20583;-61
2023/08/14 14:44:37;;;;;;;4.80;2.83;;;;;;;;;;5030161;28;20045;-63